Аэропорт: Домодедово. Москва

ICAO: UUDD

METAR:
2019-09-21 16:00:00
UUDD 211600Z 22002MPS 150V270 CAVOK 06/M00 Q1010 R32L/190050 R32R/CLRD70 NOSIG
METAR:
2019-09-21 13:59:00
TAF UUDD 211359Z 2115/2221 23006MPS 8000 SCT011 BKN020 TX08/2115Z TN04/2201Z BECMG 2119/2121 FEW003 OVC007 TEMPO 2121/2205 3100 -SHRA BKN003 SCT012CB BECMG 2205/2207 32009MPS FEW006 BKN011 TEMPO 2207/2216 35010G17MPS 3100 -SHRA BKN012CB